Attica, NY

10:00 PM EDT on September 01, 2014 (GMT -0400)
South of village | Change Station
CLOSE
Current Station
Personal Weather Station
Location: Attica, NY
Elevation: 1007 ft
Nearby Weather Stations

Elev 1007 ft 42.84 °N, 78.29 °W | Updated 3 seconds ago

Partly Cloudy
Partly Cloudy
66.7 °F
Feels Like 66.7 °F
N
3.5
Wind Variable Wind from SSW
Gusts 3.5 mph

Today
High -- | Low -- °F
--% Chance of Precip.
Yesterday
High -- | Low -- °F
Precip. -- in
6:37 AM 7:47 PM
Waxing Crescent, 46% visible
Pressure 29.85 in
Visibility 10.0 miles
Clouds Few 3200 ft
Few 5500 ft
Scattered Clouds 10000 ft
Mostly Cloudy 27000 ft
Dew Point 64 °F
Humidity 90%
Rainfall 0.00 in
Snow Depth Not available.
UV 0 out of 12
Pollen 8.90 out of 12
PM2.5 Good
Flu Activity Not available.
METAR KBUF 020154Z 18008KT 10SM FEW032 FEW055 SCT100 BKN270 24/21 A2986 RMK AO2 SLP108 T02390206

More Conditions Fewer Conditions

Pressure 29.85 in
Visibility 10.0 miles
Clouds Few 3200 ft
Few 5500 ft
Scattered Clouds 10000 ft
Mostly Cloudy 27000 ft
Dew Point 64 °F
Humidity 90%
Rainfall 0.00 in
Snow Depth Not available.
UV 0 out of 12
Pollen 8.90 out of 12
PM2.5 Good
Flu Activity Not available.
METAR KBUF 020154Z 18008KT 10SM FEW032 FEW055 SCT100 BKN270 24/21 A2986 RMK AO2 SLP108 T02390206

More Conditions Fewer Conditions

10-Day Weather Forecast

Almanac

Astronomy

Sep. 01, 2014 Rise Set
Actual Time 6:37 AM EDT 7:47 PM EDT
Civil Twilight 6:08 AM EDT 8:16 PM EDT
Nautical Twilight 5:33 AM EDT 8:51 PM EDT
Astronomical Twilight 4:56 AM EDT 9:28 PM EDT
Moon 1:31 PM EDT (9/1) 11:37 PM EDT (9/1)
Length of Visible Light 14h 08m
Length of Day
13h 09m
Tomorrow will be 2m 47s shorter.
Waxing Crescent, 46% of the Moon is Illuminated
Today
Waxing Crescent
Sep 2
First Quarter
Sep 8
Full
Sep 15
Last Quarter
Sep 24
New

Today's Extremes

State Highs State Lows

Community

WunderPhotos

Upload Photos

1,749,476 photos uploaded!

Nearby

Air Quality

  Air Quality AQ Index Pollutant
Yesterday Moderate
PM2.5
Yesterday Good
OZONE
Current Good
PM2.5
Monday Moderate
PM2.5
Monday Moderate
OZONE
Tuesday Good
PM2.5
Tuesday Good
OZONE

Snow Depth

Station Depth Elevation
No new snow has been reported.

Earthquake Activity

City Distance Mag. Time & Date
No recent earthquake activity has been reported nearby.
Minimum magnitude displayed is 2.5.

Coastal Water Temperatures

Place Temperature
Buffalo, NY 73.9 °F

Nearby Weather Stations